Time;durP1;ratioP1;P1;durP2;ratioP2;P2;SDS_P1;SDS_P2;PMS_P1;PMS_P2;Temp;Humidity;BMP_temperature;BMP_pressure;BME280_temperature;BME280_humidity;BME280_pressure;Samples;Min_cycle;Max_cycle;Signal;HPM_P1;HPM_P2
2023/10/19 00:00:50;;;;;;;16.30;14.07;;;;;;;8.81;100.00;94917.94;4951434;28;105824;-74
2023/10/19 00:03:18;;;;;;;17.50;14.73;;;;;;;8.50;100.00;94911.25;4950994;28;105316;-74
2023/10/19 00:05:46;;;;;;;16.27;14.57;;;;;;;8.49;100.00;94913.09;4951479;28;101954;-73
2023/10/19 00:08:19;;;;;;;18.13;14.93;;;;;;;8.43;100.00;94905.44;4951255;28;104226;-74
2023/10/19 00:10:47;;;;;;;16.73;14.93;;;;;;;8.50;100.00;94895.34;4950614;28;105575;-74
2023/10/19 00:13:19;;;;;;;16.70;14.33;;;;;;;8.53;100.00;94902.75;4951231;28;101909;-74
2023/10/19 00:15:48;;;;;;;18.57;15.37;;;;;;;8.46;100.00;94904.91;4951284;28;105395;-74
2023/10/19 00:18:22;;;;;;;19.13;15.67;;;;;;;8.24;100.00;94902.59;4950469;28;104525;-74
2023/10/19 00:20:59;;;;;;;17.77;15.13;;;;;;;8.31;100.00;94905.78;4954688;28;101825;-78
2023/10/19 00:23:31;;;;;;;19.03;16.43;;;;;;;8.27;100.00;94896.78;4950609;28;104457;-78
2023/10/19 00:25:57;;;;;;;20.73;16.53;;;;;;;8.27;100.00;94895.97;4951096;28;102296;-78
2023/10/19 00:28:27;;;;;;;20.03;17.13;;;;;;;8.15;100.00;94892.81;4951128;28;103918;-78
2023/10/19 00:30:59;;;;;;;20.87;18.27;;;;;;;8.05;100.00;94898.16;4950688;28;106095;-78
2023/10/19 00:33:28;;;;;;;22.40;17.63;;;;;;;7.98;100.00;94889.72;4951072;28;101828;-78
2023/10/19 00:36:00;;;;;;;23.67;18.03;;;;;;;7.86;100.00;94897.19;4954346;28;104371;-78
2023/10/19 00:38:50;;;;;;;24.97;19.90;;;;;;;7.87;100.00;94898.75;4954090;28;104435;-75
2023/10/19 00:41:21;;;;;;;22.97;20.20;;;;;;;7.71;100.00;94890.06;4957687;28;102178;-75
2023/10/19 00:43:51;;;;;;;23.47;19.73;;;;;;;7.76;100.00;94894.56;4971618;28;102729;-75
2023/10/19 00:46:23;;;;;;;24.80;20.37;;;;;;;7.75;100.00;94882.38;4954146;28;101950;-75
2023/10/19 00:48:53;;;;;;;26.07;19.90;;;;;;;7.83;100.00;94884.47;4953969;28;105449;-75
2023/10/19 00:51:40;;;;;;;23.13;19.90;;;;;;;7.82;100.00;94877.59;4953541;28;105068;-75
2023/10/19 00:54:12;;;;;;;27.83;20.80;;;;;;;7.81;100.00;94876.78;4954330;28;101841;-75
2023/10/19 00:56:48;;;;;;;23.03;19.30;;;;;;;7.72;100.00;94878.44;4954788;28;105723;-76
2023/10/19 00:59:23;;;;;;;25.57;20.53;;;;;;;7.77;100.00;94873.13;4953386;28;105410;-76
2023/10/19 01:01:53;;;;;;;23.57;19.50;;;;;;;7.73;100.00;94874.72;4953940;28;101832;-76
2023/10/19 01:04:22;;;;;;;23.90;19.33;;;;;;;7.79;100.00;94867.56;4957045;28;105289;-76
2023/10/19 01:07:04;;;;;;;23.33;19.97;;;;;;;7.79;100.00;94867.56;4954035;28;102128;-76
2023/10/19 01:09:34;;;;;;;24.00;18.80;;;;;;;7.85;100.00;94877.84;4953947;28;104913;-76
2023/10/19 01:12:05;;;;;;;22.77;19.57;;;;;;;7.79;100.00;94867.56;4953412;28;105162;-76
2023/10/19 01:14:32;;;;;;;25.70;21.03;;;;;;;7.81;100.00;94868.06;4953867;28;101879;-76
2023/10/19 01:17:02;;;;;;;22.20;18.90;;;;;;;7.81;100.00;94852.19;4953715;28;105453;-76
2023/10/19 01:19:29;;;;;;;21.97;19.23;;;;;;;7.81;100.00;94855.63;4953086;28;105148;-76
2023/10/19 01:22:04;;;;;;;20.10;17.17;;;;;;;7.79;100.00;94857.75;4953644;28;101985;-75
2023/10/19 01:24:40;;;;;;;21.13;18.13;;;;;;;7.82;100.00;94849.28;4953649;28;105636;-76
2023/10/19 01:27:08;;;;;;;22.80;18.47;;;;;;;7.87;100.00;94848.47;4956354;28;105827;-76
2023/10/19 01:29:37;;;;;;;22.73;19.17;;;;;;;7.85;100.00;94846.09;4953486;28;104828;-75
2023/10/19 01:32:08;;;;;;;22.50;17.87;;;;;;;7.80;100.00;94850.63;4952957;28;105545;-74
2023/10/19 01:34:35;;;;;;;23.03;18.17;;;;;;;7.82;100.00;94845.84;4953520;28;101918;-74
2023/10/19 01:37:03;;;;;;;20.67;17.13;;;;;;;7.61;100.00;94844.31;4953433;28;104993;-74
2023/10/19 01:39:35;;;;;;;18.77;15.97;;;;;;;7.64;100.00;94839.28;4970647;28;102777;-74
2023/10/19 01:42:04;;;;;;;21.03;17.60;;;;;;;7.60;100.00;94835.63;4953412;28;101903;-74
2023/10/19 01:44:30;;;;;;;19.03;16.67;;;;;;;7.62;100.00;94841.41;4953296;28;105282;-74
2023/10/19 01:47:00;;;;;;;21.20;18.13;;;;;;;7.48;100.00;94847.53;4951748;28;105563;-74
2023/10/19 01:49:26;;;;;;;23.40;19.17;;;;;;;7.45;100.00;94840.94;4956499;28;102160;-74
2023/10/19 01:51:53;;;;;;;26.47;19.40;;;;;;;7.41;100.00;94833.81;4952465;28;105547;-74
2023/10/19 01:54:23;;;;;;;27.60;20.60;;;;;;;7.47;100.00;94840.66;4953084;28;101832;-74
2023/10/19 01:56:54;;;;;;;23.63;19.97;;;;;;;7.50;100.00;94840.91;4953084;28;104888;-74
2023/10/19 01:59:23;;;;;;;21.83;18.27;;;;;;;7.47;100.00;94827.44;4952513;28;105195;-74
2023/10/19 02:01:49;;;;;;;21.83;18.63;;;;;;;7.51;100.00;94828.47;4953280;28;101785;-74
2023/10/19 02:04:16;;;;;;;21.63;18.77;;;;;;;7.51;100.00;94823.19;4953213;28;105591;-74
2023/10/19 02:06:45;;;;;;;21.17;17.57;;;;;;;7.55;100.00;94822.41;4952679;28;104495;-74
2023/10/19 02:09:21;;;;;;;25.90;20.67;;;;;;;7.58;100.00;94831.66;4952684;28;102130;-74
2023/10/19 02:11:48;;;;;;;24.53;19.40;;;;;;;7.49;100.00;94827.97;4955821;28;105349;-74
2023/10/19 02:14:19;;;;;;;22.73;19.80;;;;;;;7.61;100.00;94833.75;4952978;28;101962;-74
2023/10/19 02:16:47;;;;;;;25.53;21.30;;;;;;;7.62;100.00;94833.47;4952756;28;105304;-74
2023/10/19 02:19:15;;;;;;;27.03;22.00;;;;;;;7.51;100.00;94842.50;4952336;28;105115;-74
2023/10/19 02:21:41;;;;;;;28.67;22.57;;;;;;;7.51;100.00;94839.84;4970341;28;101896;-74
2023/10/19 02:24:14;;;;;;;24.23;21.47;;;;;;;7.60;100.00;94846.19;4952542;28;105308;-74
2023/10/19 02:26:40;;;;;;;25.70;22.70;;;;;;;7.53;100.00;94840.38;4969759;28;102799;-74
2023/10/19 02:29:09;;;;;;;26.77;21.87;;;;;;;7.55;100.00;94846.19;4952451;28;101965;-77
2023/10/19 02:31:37;;;;;;;27.50;22.57;;;;;;;7.50;100.00;94853.34;4952489;28;105129;-77
2023/10/19 02:34:06;;;;;;;26.60;21.73;;;;;;;7.37;100.00;94851.25;4955151;28;105842;-77
2023/10/19 02:36:32;;;;;;;29.80;22.87;;;;;;;7.37;100.00;94869.78;4952612;28;105185;-77
2023/10/19 02:39:00;;;;;;;28.40;22.37;;;;;;;7.35;100.00;94863.94;4951905;28;105399;-77
2023/10/19 02:41:26;;;;;;;28.87;22.30;;;;;;;7.34;100.00;94865.81;4970049;28;101803;-78
2023/10/19 02:44:01;;;;;;;27.00;21.83;;;;;;;7.22;100.00;94856.56;4970129;28;102639;-78
2023/10/19 02:46:28;;;;;;;27.33;21.87;;;;;;;7.20;100.00;94864.75;4951939;28;105130;-77
2023/10/19 02:48:56;;;;;;;28.73;23.93;;;;;;;7.33;100.00;94860.78;4952312;28;101788;-75
2023/10/19 02:51:23;;;;;;;29.07;24.07;;;;;;;7.36;100.00;94850.47;4952328;28;105098;-74
2023/10/19 02:53:51;;;;;;;25.27;21.83;;;;;;;7.42;100.00;94856.53;4955141;28;105785;-74
2023/10/19 02:56:18;;;;;;;27.73;23.57;;;;;;;7.47;100.00;94849.38;4952080;28;105528;-75
2023/10/19 02:58:48;;;;;;;28.43;23.23;;;;;;;7.60;100.00;94850.69;4951214;28;105487;-75
2023/10/19 03:01:21;;;;;;;27.33;22.33;;;;;;;7.70;100.00;94853.31;4952082;28;101961;-75
2023/10/19 03:03:53;;;;;;;27.60;22.60;;;;;;;7.75;100.00;94840.81;4952340;28;105594;-75
2023/10/19 03:06:21;;;;;;;26.03;21.47;;;;;;;7.77;100.00;94832.63;4951511;28;105391;-76
2023/10/19 03:08:55;;;;;;;27.07;22.67;;;;;;;7.61;100.00;94821.31;4952141;28;101979;-76
2023/10/19 03:11:21;;;;;;;29.13;22.90;;;;;;;7.57;100.00;94814.97;4952009;28;105422;-76
2023/10/19 03:13:50;;;;;;;27.93;23.37;;;;;;;7.57;100.00;94819.47;4951377;28;105946;-76
2023/10/19 03:16:17;;;;;;;26.73;22.93;;;;;;;7.60;100.00;94822.38;4955515;28;101970;-75
2023/10/19 03:18:44;;;;;;;27.57;23.23;;;;;;;7.57;100.00;94824.75;4951325;28;106082;-75
2023/10/19 03:21:11;;;;;;;28.67;23.57;;;;;;;7.67;100.00;94822.06;4951826;28;102050;-75
2023/10/19 03:23:40;;;;;;;27.30;23.23;;;;;;;7.69;100.00;94835.84;4968233;28;104850;-75
2023/10/19 03:26:23;;;;;;;26.33;22.67;;;;;;;7.72;100.00;94830.00;4951282;28;105349;-75
2023/10/19 03:28:54;;;;;;;27.67;22.47;;;;;;;7.76;100.00;94826.56;4951680;28;101839;-76
2023/10/19 03:31:24;;;;;;;25.47;21.73;;;;;;;7.82;100.00;94824.69;4951847;28;104918;-78
2023/10/19 03:33:54;;;;;;;30.00;23.33;;;;;;;7.82;100.00;94820.19;4951158;28;105385;-78
2023/10/19 03:36:23;;;;;;;23.50;20.60;;;;;;;7.88;100.00;94807.72;4951713;28;102096;-76
2023/10/19 03:38:53;;;;;;;27.07;22.07;;;;;;;7.90;100.00;94811.66;4954529;28;105545;-77
2023/10/19 03:41:25;;;;;;;27.30;22.17;;;;;;;7.94;100.00;94804.78;4951251;28;101968;-77
2023/10/19 03:43:54;;;;;;;28.67;22.27;;;;;;;7.63;100.00;94810.47;4951577;28;104943;-76
2023/10/19 03:46:28;;;;;;;27.00;21.73;;;;;;;7.61;100.00;94802.00;4951110;28;105199;-75
2023/10/19 03:48:59;;;;;;;25.10;21.03;;;;;;;7.70;100.00;94801.16;4951678;28;101813;-75
2023/10/19 03:51:27;;;;;;;25.70;21.77;;;;;;;7.65;100.00;94795.13;4951520;28;104877;-75
2023/10/19 03:54:01;;;;;;;25.13;21.40;;;;;;;7.68;100.00;94798.00;4950829;28;105625;-75
2023/10/19 03:56:32;;;;;;;27.73;21.87;;;;;;;7.72;100.00;94793.75;4951404;28;101832;-75
2023/10/19 03:59:01;;;;;;;25.30;20.73;;;;;;;7.69;100.00;94791.66;4951340;28;105386;-74
2023/10/19 04:01:31;;;;;;;26.43;22.17;;;;;;;7.74;100.00;94791.63;4954637;28;105861;-73
2023/10/19 04:04:01;;;;;;;29.53;21.40;;;;;;;7.71;100.00;94778.97;4951277;28;104252;-75
2023/10/19 04:06:28;;;;;;;26.83;21.60;;;;;;;7.62;100.00;94772.63;4950815;28;105796;-74
2023/10/19 04:08:56;;;;;;;26.83;21.23;;;;;;;7.78;100.00;94776.00;4951532;28;102004;-74
2023/10/19 04:11:32;;;;;;;27.33;21.83;;;;;;;7.75;100.00;94772.03;4972437;28;102640;-73
2023/10/19 04:14:03;;;;;;;27.90;21.97;;;;;;;7.75;100.00;94781.84;4972184;28;103095;-73
2023/10/19 04:16:31;;;;;;;25.57;22.73;;;;;;;7.74;100.00;94774.97;4954906;28;101809;-74
2023/10/19 04:18:59;;;;;;;25.67;22.43;;;;;;;7.86;100.00;94767.50;4970986;28;105413;-74
2023/10/19 04:21:26;;;;;;;25.00;21.93;;;;;;;7.92;100.00;94777.78;4971919;28;102775;-74
2023/10/19 04:23:53;;;;;;;26.40;21.53;;;;;;;8.02;100.00;94766.38;4957880;28;102233;-74
2023/10/19 04:26:21;;;;;;;24.60;21.17;;;;;;;8.01;100.00;94759.50;4954073;28;105084;-74
2023/10/19 04:28:51;;;;;;;27.30;22.70;;;;;;;8.06;100.00;94760.25;4954444;28;102096;-74
2023/10/19 04:31:22;;;;;;;24.17;21.30;;;;;;;8.10;100.00;94760.47;4972198;28;102659;-73
2023/10/19 04:33:49;;;;;;;26.17;22.60;;;;;;;8.17;100.00;94753.03;4970173;28;105777;-71
2023/10/19 04:36:21;;;;;;;26.90;21.17;;;;;;;8.24;100.00;94756.19;4954329;28;102021;-72
2023/10/19 04:38:48;;;;;;;26.57;22.73;;;;;;;8.24;100.00;94753.56;4972382;28;102863;-73
2023/10/19 04:41:15;;;;;;;23.07;20.57;;;;;;;8.29;100.00;94745.59;4953633;28;104543;-74
2023/10/19 04:43:58;;;;;;;25.27;21.37;;;;;;;8.32;100.00;94751.13;4954234;28;102038;-74
2023/10/19 04:46:29;;;;;;;25.80;22.30;;;;;;;8.22;100.00;94734.50;4956157;28;105088;-74
2023/10/19 04:48:56;;;;;;;23.80;20.97;;;;;;;8.22;100.00;94740.59;4954451;28;102019;-73
2023/10/19 04:51:24;;;;;;;23.90;20.60;;;;;;;8.32;100.00;94739.72;4954325;28;105273;-73
2023/10/19 04:53:51;;;;;;;23.90;21.03;;;;;;;8.34;100.00;94735.72;4953467;28;105293;-73
2023/10/19 04:56:18;;;;;;;26.23;22.43;;;;;;;8.37;100.00;94739.69;4954635;28;102144;-73
2023/10/19 04:58:45;;;;;;;29.47;22.30;;;;;;;8.35;100.00;94737.31;4953732;28;105542;-73
2023/10/19 05:01:14;;;;;;;26.67;22.20;;;;;;;8.36;100.00;94733.63;4953659;28;105745;-73
2023/10/19 05:03:41;;;;;;;25.43;21.83;;;;;;;8.25;100.00;94733.94;4953921;28;101864;-73
2023/10/19 05:06:09;;;;;;;27.33;22.37;;;;;;;8.29;100.00;94729.69;4956899;28;105850;-73
2023/10/19 05:08:36;;;;;;;27.87;23.13;;;;;;;8.38;100.00;94739.41;4953839;28;102379;-73
2023/10/19 05:11:03;;;;;;;26.03;23.03;;;;;;;8.38;100.00;94731.47;4971583;28;102783;-73
2023/10/19 05:13:32;;;;;;;27.07;22.13;;;;;;;8.40;100.00;94731.19;4971079;28;101984;-73
2023/10/19 05:15:59;;;;;;;27.30;22.83;;;;;;;8.41;100.00;94728.25;4954135;28;101898;-73
2023/10/19 05:18:28;;;;;;;26.03;22.73;;;;;;;8.38;100.00;94723.53;4954269;28;105267;-73
2023/10/19 05:20:56;;;;;;;26.40;22.40;;;;;;;8.37;100.00;94726.44;4952576;28;105455;-73
2023/10/19 05:23:24;;;;;;;27.93;22.53;;;;;;;8.32;100.00;94726.47;4953869;28;102013;-73
2023/10/19 05:25:53;;;;;;;25.00;22.40;;;;;;;8.31;100.00;94723.06;4953782;28;105338;-73
2023/10/19 05:28:21;;;;;;;27.13;23.23;;;;;;;8.35;100.00;94729.34;4956636;28;103975;-73
2023/10/19 05:30:49;;;;;;;26.93;23.50;;;;;;;8.36;100.00;94727.50;4971071;28;102996;-73
2023/10/19 05:33:20;;;;;;;24.90;22.20;;;;;;;8.42;100.00;94723.75;4953187;28;105579;-73
2023/10/19 05:35:49;;;;;;;27.03;22.47;;;;;;;8.42;100.00;94721.09;4953894;28;102318;-73
2023/10/19 05:38:16;;;;;;;25.10;21.90;;;;;;;8.44;100.00;94727.72;4953527;28;105534;-73
2023/10/19 05:40:45;;;;;;;29.03;22.07;;;;;;;8.38;100.00;94720.88;4953338;28;105447;-73
2023/10/19 05:43:12;;;;;;;25.63;21.83;;;;;;;8.34;100.00;94733.06;4971102;28;102103;-73
2023/10/19 05:45:39;;;;;;;27.70;22.13;;;;;;;8.42;100.00;94734.34;4953463;28;104859;-73
2023/10/19 05:48:07;;;;;;;27.50;22.67;;;;;;;8.46;100.00;94730.88;4952821;28;106012;-73
2023/10/19 05:50:34;;;;;;;25.73;22.43;;;;;;;8.43;100.00;94730.63;4974459;28;102103;-73
2023/10/19 05:53:04;;;;;;;27.17;22.40;;;;;;;8.45;100.00;94747.06;4952267;28;105976;-74
2023/10/19 05:55:33;;;;;;;24.73;21.47;;;;;;;8.40;100.00;94745.22;4962618;28;101817;-73
2023/10/19 05:58:04;;;;;;;24.50;21.80;;;;;;;8.46;100.00;94745.97;4933906;28;104959;-73
2023/10/19 06:00:31;;;;;;;24.37;21.83;;;;;;;8.39;100.00;94746.28;4933977;28;106041;-73
2023/10/19 06:02:58;;;;;;;25.47;21.67;;;;;;;8.41;100.00;94743.38;4934518;28;102196;-73
2023/10/19 06:05:26;;;;;;;29.33;23.73;;;;;;;8.34;100.00;94745.53;4934597;28;103842;-73
2023/10/19 06:07:53;;;;;;;29.07;22.17;;;;;;;8.38;100.00;94746.56;4959004;28;101914;-73
2023/10/19 06:10:25;;;;;;;26.20;22.50;;;;;;;8.43;100.00;94752.63;4970977;28;102352;-72
2023/10/19 06:12:53;;;;;;;27.83;23.47;;;;;;;8.51;100.00;94749.38;4956906;28;104251;-76
2023/10/19 06:15:22;;;;;;;25.63;21.80;;;;;;;8.58;100.00;94749.06;4971476;28;102138;-72
2023/10/19 06:17:49;;;;;;;26.63;23.23;;;;;;;8.58;100.00;94754.34;4935938;28;104016;-72
2023/10/19 06:20:26;;;;;;;25.30;21.93;;;;;;;8.66;100.00;94761.69;4968858;28;103112;-73
2023/10/19 06:22:55;;;;;;;26.90;23.17;;;;;;;8.70;100.00;94757.44;4941555;28;101789;-74
2023/10/19 06:25:25;;;;;;;26.27;22.40;;;;;;;8.77;100.00;94749.97;4934310;28;104170;-73
2023/10/19 06:27:56;;;;;;;25.60;22.80;;;;;;;8.86;100.00;94757.03;4951408;28;103078;-74
2023/10/19 06:30:25;;;;;;;27.70;23.27;;;;;;;8.90;100.00;94754.63;4934127;28;101937;-73
2023/10/19 06:32:53;;;;;;;25.07;22.10;;;;;;;9.01;100.00;94753.44;4939672;28;104182;-74
2023/10/19 06:35:20;;;;;;;22.70;20.27;;;;;;;9.10;100.00;94759.75;4936646;28;104518;-73
2023/10/19 06:37:48;;;;;;;27.17;22.83;;;;;;;9.19;100.00;94760.69;4950017;28;105073;-73
2023/10/19 06:40:17;;;;;;;28.47;24.33;;;;;;;9.21;100.00;94763.88;4933482;28;105182;-73
2023/10/19 06:42:46;;;;;;;27.23;23.07;;;;;;;9.21;100.00;94758.56;4938607;28;101954;-73
2023/10/19 06:45:13;;;;;;;25.40;22.53;;;;;;;9.30;100.00;94762.16;4953149;28;105251;-73
2023/10/19 06:47:42;;;;;;;24.43;21.77;;;;;;;9.23;100.00;94749.25;4949495;28;105423;-73
2023/10/19 06:50:11;;;;;;;23.57;21.13;;;;;;;9.30;100.00;94744.41;4940940;28;101935;-75
2023/10/19 06:52:40;;;;;;;24.93;21.37;;;;;;;9.35;100.00;94746.19;4952459;28;102581;-75
2023/10/19 06:55:13;;;;;;;28.83;22.43;;;;;;;9.42;100.00;94749.28;4944608;28;104963;-74
2023/10/19 06:57:43;;;;;;;26.97;22.60;;;;;;;9.47;100.00;94752.69;4953026;28;101934;-74
2023/10/19 07:00:15;;;;;;;27.23;21.53;;;;;;;9.48;100.00;94758.81;4952640;28;104337;-75
2023/10/19 07:02:43;;;;;;;25.20;22.13;;;;;;;9.41;100.00;94753.03;4953267;28;102062;-75
2023/10/19 07:05:11;;;;;;;25.13;22.47;;;;;;;9.47;100.00;94752.69;4967358;28;103095;-73
2023/10/19 07:07:41;;;;;;;27.70;23.50;;;;;;;9.50;100.00;94754.78;4945088;28;105086;-74
2023/10/19 07:10:09;;;;;;;24.67;21.83;;;;;;;9.44;100.00;94760.44;4960808;28;101845;-74
2023/10/19 07:12:39;;;;;;;26.03;22.10;;;;;;;9.64;100.00;94757.53;4939947;28;103726;-74
2023/10/19 07:15:07;;;;;;;26.33;22.73;;;;;;;9.73;100.00;94759.28;4942087;28;105581;-74
2023/10/19 07:17:37;;;;;;;25.73;23.03;;;;;;;9.85;100.00;94758.88;4954714;28;101925;-75
2023/10/19 07:20:06;;;;;;;25.90;22.60;;;;;;;9.99;100.00;94757.09;4949036;28;105023;-75
2023/10/19 07:22:33;;;;;;;28.10;24.27;;;;;;;9.96;100.00;94761.13;4951999;28;101874;-75
2023/10/19 07:25:02;;;;;;;26.30;22.60;;;;;;;10.03;100.00;94760.78;4933331;28;105493;-74
2023/10/19 07:27:28;;;;;;;24.17;21.40;;;;;;;10.00;100.00;94761.34;4932774;28;105306;-75
2023/10/19 07:29:56;;;;;;;25.47;20.60;;;;;;;10.20;100.00;94753.91;4951534;28;101995;-76
2023/10/19 07:32:23;;;;;;;25.60;20.73;;;;;;;10.31;100.00;94757.22;4935240;28;105441;-75
2023/10/19 07:34:51;;;;;;;24.37;20.97;;;;;;;10.37;100.00;94745.44;4951942;28;105699;-75
2023/10/19 07:37:18;;;;;;;22.83;20.17;;;;;;;10.42;100.00;94753.34;4970344;28;101877;-76
2023/10/19 07:39:50;;;;;;;24.83;20.40;;;;;;;10.61;100.00;94746.13;4955112;28;105678;-76
2023/10/19 07:42:17;;;;;;;22.37;19.97;;;;;;;10.75;100.00;94745.09;4952339;28;101932;-76
2023/10/19 07:44:44;;;;;;;23.70;21.07;;;;;;;10.71;100.00;94735.34;4951450;28;105593;-76
2023/10/19 07:47:13;;;;;;;24.00;20.20;;;;;;;10.80;100.00;94742.34;4952108;28;105059;-76
2023/10/19 07:49:40;;;;;;;21.70;19.17;;;;;;;10.85;100.00;94736.94;4948018;28;102000;-76
2023/10/19 07:52:11;;;;;;;20.53;18.33;;;;;;;10.90;100.00;94738.75;4932767;28;104919;-76
2023/10/19 07:54:38;;;;;;;23.07;19.07;;;;;;;11.03;100.00;94736.13;4932598;28;105923;-75
2023/10/19 07:57:06;;;;;;;21.43;19.23;;;;;;;11.13;100.00;94737.81;4932614;28;103586;-75
2023/10/19 07:59:33;;;;;;;20.57;18.37;;;;;;;11.26;100.00;94731.72;4933062;28;104494;-75
2023/10/19 08:02:02;;;;;;;20.87;17.87;;;;;;;11.33;100.00;94726.81;4935508;28;105415;-74
2023/10/19 08:04:29;;;;;;;20.47;18.27;;;;;;;11.34;100.00;94728.38;4940116;28;105623;-74
2023/10/19 08:06:56;;;;;;;21.10;17.57;;;;;;;11.44;100.00;94725.53;4937067;28;105780;-74
2023/10/19 08:09:31;;;;;;;19.97;17.83;;;;;;;11.56;100.00;94725.81;4952146;28;101960;-75
2023/10/19 08:12:01;;;;;;;18.47;16.60;;;;;;;11.61;100.00;94726.53;4970044;28;102963;-75
2023/10/19 08:14:28;;;;;;;20.00;17.77;;;;;;;11.61;100.00;94723.09;4951409;28;103884;-75
2023/10/19 08:16:56;;;;;;;21.67;17.47;;;;;;;11.75;100.00;94719.34;4947621;28;101882;-74
2023/10/19 08:19:23;;;;;;;18.20;16.30;;;;;;;11.86;100.00;94711.91;4932660;28;104133;-74
2023/10/19 08:21:50;;;;;;;18.00;16.10;;;;;;;11.97;100.00;94703.41;4938674;28;104119;-74
2023/10/19 08:24:18;;;;;;;19.00;16.23;;;;;;;12.04;100.00;94705.69;4946761;28;101883;-74
2023/10/19 08:26:47;;;;;;;18.97;17.00;;;;;;;12.19;100.00;94710.66;4932029;28;105827;-74
2023/10/19 08:29:14;;;;;;;18.23;16.33;;;;;;;12.30;100.00;94701.34;4936361;28;101968;-74
2023/10/19 08:31:42;;;;;;;18.80;16.50;;;;;;;12.41;100.00;94698.16;4943508;28;105081;-74
2023/10/19 08:34:11;;;;;;;18.63;15.87;;;;;;;12.48;100.00;94687.84;4968411;28;105353;-76
2023/10/19 08:36:38;;;;;;;17.47;15.17;;;;;;;12.63;100.00;94689.34;4951942;28;102043;-74
2023/10/19 08:39:06;;;;;;;16.40;14.70;;;;;;;12.76;100.00;94681.28;4951840;28;104823;-75
2023/10/19 08:41:37;;;;;;;15.30;13.77;;;;;;;12.95;100.00;94681.09;4956703;28;102844;-74
2023/10/19 08:44:10;;;;;;;15.73;13.80;;;;;;;13.06;100.00;94674.41;4932371;28;101942;-74
2023/10/19 08:46:38;;;;;;;15.17;13.20;;;;;;;13.23;100.00;94671.81;4935012;28;105589;-74
2023/10/19 08:49:05;;;;;;;15.20;13.23;;;;;;;13.25;100.00;94662.41;4932454;28;101908;-74
2023/10/19 08:51:32;;;;;;;15.97;13.80;;;;;;;13.37;100.00;94659.19;4960858;28;102502;-74
2023/10/19 08:53:59;;;;;;;17.27;14.73;;;;;;;13.41;100.00;94658.25;4950386;28;105391;-74
2023/10/19 08:56:27;;;;;;;18.30;12.97;;;;;;;13.39;100.00;94663.09;4937172;28;101943;-73
2023/10/19 08:58:54;;;;;;;18.17;13.57;;;;;;;13.52;100.00;94654.19;4934820;28;104921;-74
2023/10/19 09:01:23;;;;;;;14.80;12.03;;;;;;;13.58;100.00;94652.19;4941087;28;104434;-73
2023/10/19 09:03:51;;;;;;;14.23;11.17;;;;;;;13.67;100.00;94653.75;4935429;28;102218;-73
2023/10/19 09:06:18;;;;;;;14.33;11.80;;;;;;;13.63;100.00;94646.69;4935624;28;104967;-73
2023/10/19 09:08:48;;;;;;;11.93;10.83;;;;;;;13.69;100.00;94640.88;4938865;28;101911;-73
2023/10/19 09:11:15;;;;;;;12.70;10.63;;;;;;;13.70;100.00;94641.66;4949410;28;103710;-74
2023/10/19 09:13:47;;;;;;;11.07;9.80;;;;;;;13.73;100.00;94630.38;4948739;28;105599;-74
2023/10/19 09:16:16;;;;;;;11.20;10.00;;;;;;;13.72;100.00;94631.44;4954670;28;101841;-74
2023/10/19 09:18:46;;;;;;;10.43;9.43;;;;;;;13.75;100.00;94636.97;4953797;28;102742;-74
2023/10/19 09:21:23;;;;;;;11.80;10.60;;;;;;;13.74;100.00;94634.63;4952950;28;103069;-73
2023/10/19 09:23:51;;;;;;;11.53;10.33;;;;;;;13.74;100.00;94634.63;4935185;28;101830;-73
2023/10/19 09:26:18;;;;;;;13.00;11.53;;;;;;;13.74;100.00;94639.97;4935351;28;105440;-73
2023/10/19 09:28:48;;;;;;;12.43;11.17;;;;;;;13.76;100.00;94633.22;4938288;28;106174;-74
2023/10/19 09:31:16;;;;;;;11.50;10.37;;;;;;;13.82;100.00;94621.28;4935846;28;104385;-74
2023/10/19 09:33:45;;;;;;;12.67;11.37;;;;;;;13.79;100.00;94623.78;4941134;28;104156;-74
2023/10/19 09:36:18;;;;;;;11.97;10.67;;;;;;;13.80;100.00;94622.69;4950070;28;102026;-74
2023/10/19 09:38:49;;;;;;;12.47;10.53;;;;;;;13.83;100.00;94622.03;4941718;28;105059;-74
2023/10/19 09:41:18;;;;;;;12.10;10.87;;;;;;;13.85;100.00;94625.19;4934637;28;105693;-74
2023/10/19 09:43:46;;;;;;;11.77;10.57;;;;;;;13.84;100.00;94626.31;4934983;28;102299;-73
2023/10/19 09:46:21;;;;;;;12.83;10.90;;;;;;;13.94;100.00;94634.00;4970681;28;102591;-74
2023/10/19 09:48:51;;;;;;;11.37;10.17;;;;;;;13.91;100.00;94631.97;4971258;28;102844;-74
2023/10/19 09:51:20;;;;;;;11.43;10.43;;;;;;;14.03;100.00;94629.44;4956458;28;101994;-74
2023/10/19 09:53:52;;;;;;;15.17;10.00;;;;;;;14.19;100.00;94633.22;4934204;28;105573;-74
2023/10/19 09:56:23;;;;;;;12.73;11.37;;;;;;;14.41;100.00;94625.06;4934909;28;102719;-74
2023/10/19 09:58:54;;;;;;;12.33;11.13;;;;;;;14.65;100.00;94615.44;4946327;28;105300;-75
2023/10/19 10:01:22;;;;;;;14.67;12.00;;;;;;;14.69;100.00;94626.28;4933907;28;105432;-74
2023/10/19 10:03:52;;;;;;;13.20;11.83;;;;;;;14.99;100.00;94625.28;4934478;28;101978;-74
2023/10/19 10:06:28;;;;;;;12.13;10.83;;;;;;;15.05;100.00;94616.72;4934381;28;105313;-75
2023/10/19 10:08:56;;;;;;;12.40;11.20;;;;;;;14.97;100.00;94604.16;4933355;28;105681;-74
2023/10/19 10:11:26;;;;;;;13.07;11.77;;;;;;;15.08;100.00;94599.25;4934487;28;102027;-75
2023/10/19 10:13:54;;;;;;;13.37;11.87;;;;;;;15.50;100.00;94593.72;4954660;28;102821;-75
2023/10/19 10:16:24;;;;;;;13.37;12.07;;;;;;;15.81;100.00;94593.38;4934199;28;101991;-75
2023/10/19 10:18:58;;;;;;;12.73;11.40;;;;;;;15.86;100.00;94598.53;4934559;28;105121;-74
2023/10/19 10:21:26;;;;;;;12.50;11.20;;;;;;;16.35;100.00;94593.09;4969238;28;103084;-74
2023/10/19 10:23:54;;;;;;;12.47;11.37;;;;;;;16.56;100.00;94587.72;4946110;28;102247;-74
2023/10/19 10:26:25;;;;;;;12.07;10.47;;;;;;;16.76;100.00;94594.94;4934171;28;104982;-74
2023/10/19 10:29:11;;;;;;;11.97;10.77;;;;;;;17.31;100.00;94579.91;4951374;28;102750;-74
2023/10/19 10:31:42;;;;;;;13.13;11.83;;;;;;;16.89;100.00;94580.44;4950518;28;101792;-74
2023/10/19 10:34:12;;;;;;;12.00;10.90;;;;;;;17.14;100.00;94565.91;4934511;28;104494;-74
2023/10/19 10:37:02;;;;;;;11.57;10.37;;;;;;;16.64;100.00;94573.44;4954573;28;102844;-75
2023/10/19 10:39:30;;;;;;;11.53;10.33;;;;;;;16.67;100.00;94572.78;4944532;28;105509;-74
2023/10/19 10:41:58;;;;;;;12.87;11.60;;;;;;;17.06;100.00;94569.50;4938536;28;104034;-74
2023/10/19 10:44:44;;;;;;;12.40;11.17;;;;;;;16.60;100.00;94583.25;4934794;28;102205;-74
2023/10/19 10:47:12;;;;;;;13.67;12.37;;;;;;;16.71;100.00;94574.47;4934034;28;105349;-74
2023/10/19 10:49:52;;;;;;;12.73;11.40;;;;;;;16.59;100.00;94570.94;4933238;28;105689;-74
2023/10/19 10:52:28;;;;;;;13.37;11.97;;;;;;;16.67;100.00;94572.78;4933906;28;101766;-74
2023/10/19 10:55:00;;;;;;;12.60;11.50;;;;;;;16.56;100.00;94558.97;4937973;28;105532;-74
2023/10/19 10:57:33;;;;;;;13.13;11.67;;;;;;;16.75;100.00;94553.09;4952182;28;104993;-74
2023/10/19 11:00:07;;;;;;;13.00;11.70;;;;;;;16.92;100.00;94540.28;4955864;28;101911;-74
2023/10/19 11:02:35;;;;;;;12.47;11.23;;;;;;;17.37;100.00;94534.78;4937943;28;105421;-74
2023/10/19 11:05:04;;;;;;;13.17;11.60;;;;;;;17.80;100.00;94530.38;4940787;28;101922;-74
2023/10/19 11:07:31;;;;;;;12.43;11.23;;;;;;;17.72;100.00;94535.91;4933664;28;105543;-74
2023/10/19 11:09:58;;;;;;;12.07;10.90;;;;;;;17.65;100.00;94543.75;4963230;28;102897;-74
2023/10/19 11:12:25;;;;;;;11.93;10.77;;;;;;;17.86;100.00;94549.75;4934849;28;102085;-74
2023/10/19 11:14:54;;;;;;;11.97;10.80;;;;;;;18.39;100.00;94546.69;4940302;28;104160;-74
2023/10/19 11:17:27;;;;;;;11.07;9.97;;;;;;;18.77;100.00;94545.03;4932955;28;105303;-73